createdAt,value
2022-08-04T00:00:01.663Z,22.10
2022-08-04T00:03:02.966Z,22.10
2022-08-04T00:05:40.072Z,22.06
2022-08-04T00:08:50.038Z,22.03
2022-08-04T00:11:23.386Z,22.00
2022-08-04T00:14:02.827Z,21.97
2022-08-04T00:16:38.343Z,21.92
2022-08-04T00:19:17.617Z,21.89
2022-08-04T00:22:01.048Z,21.88
2022-08-04T00:24:30.551Z,21.84
2022-08-04T00:26:58.417Z,21.77
2022-08-04T00:29:27.636Z,21.72
2022-08-04T00:31:57.867Z,21.68
2022-08-04T00:34:28.158Z,21.62
2022-08-04T00:36:57.160Z,21.62
2022-08-04T00:39:25.977Z,21.63
2022-08-04T00:41:57.091Z,21.62
2022-08-04T00:44:54.035Z,21.60
2022-08-04T00:47:30.509Z,21.57
2022-08-04T00:50:07.585Z,21.55
2022-08-04T00:52:47.477Z,21.52
2022-08-04T00:55:34.090Z,21.49
2022-08-04T00:58:26.547Z,21.45
2022-08-04T01:01:07.184Z,21.40
2022-08-04T01:04:03.833Z,21.35
2022-08-04T01:06:38.238Z,21.31
2022-08-04T01:09:23.433Z,21.26
2022-08-04T01:12:35.886Z,21.22
2022-08-04T01:15:14.814Z,21.15
2022-08-04T01:18:00.370Z,21.12
2022-08-04T01:20:34.520Z,21.08
2022-08-04T01:23:27.067Z,21.05
2022-08-04T01:26:43.538Z,21.03
2022-08-04T01:29:16.953Z,20.99
2022-08-04T01:32:06.902Z,21.01
2022-08-04T01:34:37.265Z,20.98
2022-08-04T01:37:11.006Z,20.99
2022-08-04T01:39:49.883Z,20.99
2022-08-04T01:42:31.304Z,20.96
2022-08-04T01:45:07.115Z,20.93
2022-08-04T01:47:36.626Z,20.90
2022-08-04T01:50:10.379Z,20.88
2022-08-04T01:52:39.910Z,20.86
2022-08-04T01:55:10.353Z,20.86
2022-08-04T01:57:43.068Z,20.81
2022-08-04T02:00:12.932Z,20.79
2022-08-04T02:02:41.279Z,20.79
2022-08-04T02:05:11.791Z,20.78
2022-08-04T02:08:04.426Z,20.80
2022-08-04T02:10:59.930Z,20.78
2022-08-04T02:13:36.644Z,20.77
2022-08-04T02:16:31.594Z,20.80
2022-08-04T02:19:08.268Z,20.82
2022-08-04T02:21:45.428Z,20.85
2022-08-04T02:24:15.604Z,20.83
2022-08-04T02:26:48.769Z,20.82
2022-08-04T02:29:21.616Z,20.80
2022-08-04T02:32:24.018Z,20.81
2022-08-04T02:34:55.366Z,20.79
2022-08-04T02:37:24.886Z,20.79
2022-08-04T02:39:54.263Z,20.78
2022-08-04T02:42:21.942Z,20.76
2022-08-04T02:44:51.712Z,20.73
2022-08-04T02:47:21.567Z,20.71
2022-08-04T02:49:51.385Z,20.68
2022-08-04T02:52:20.162Z,20.66
2022-08-04T02:54:52.141Z,20.62
2022-08-04T02:57:24.506Z,20.58
2022-08-04T03:00:13.384Z,20.54
2022-08-04T03:03:03.556Z,20.50
2022-08-04T03:06:16.114Z,20.47
2022-08-04T03:09:23.971Z,20.46
2022-08-04T03:12:19.342Z,20.48
2022-08-04T03:15:10.285Z,20.50
2022-08-04T03:17:52.552Z,20.52
2022-08-04T03:20:45.180Z,20.56
2022-08-04T03:23:18.785Z,20.57
2022-08-04T03:26:06.457Z,20.60
2022-08-04T03:29:33.160Z,20.59
2022-08-04T03:32:13.639Z,20.54
2022-08-04T03:35:02.477Z,20.50
2022-08-04T03:37:53.428Z,20.50
2022-08-04T03:40:33.623Z,20.52
2022-08-04T03:43:59.322Z,20.53
2022-08-04T03:46:21.651Z,20.54
2022-08-04T03:49:08.853Z,20.62
2022-08-04T03:52:06.173Z,20.68
2022-08-04T03:54:39.936Z,20.72
2022-08-04T03:57:32.547Z,20.78
2022-08-04T04:00:05.656Z,20.78
2022-08-04T04:02:45.862Z,20.84
2022-08-04T04:05:58.800Z,20.86
2022-08-04T04:08:49.902Z,20.95
2022-08-04T04:11:29.625Z,21.04
2022-08-04T04:14:33.624Z,21.12
2022-08-04T04:17:08.831Z,21.20
2022-08-04T04:19:59.973Z,21.30
2022-08-04T04:22:42.715Z,21.41
2022-08-04T04:25:31.454Z,21.49
2022-08-04T04:28:44.266Z,21.62
2022-08-04T04:31:11.905Z,21.71
2022-08-04T04:33:50.558Z,21.83
2022-08-04T04:36:49.483Z,21.83
2022-08-04T04:39:33.369Z,21.90
2022-08-04T04:42:18.387Z,22.00
2022-08-04T04:45:25.966Z,21.99
2022-08-04T04:48:12.347Z,22.09
2022-08-04T04:51:05.545Z,22.16
2022-08-04T04:53:48.261Z,22.27
2022-08-04T04:56:29.622Z,22.31
2022-08-04T04:58:58.046Z,22.44
2022-08-04T05:01:38.136Z,22.54
2022-08-04T05:04:08.836Z,22.59
2022-08-04T05:06:54.627Z,22.64
2022-08-04T05:09:52.420Z,22.68
2022-08-04T05:14:32.264Z,22.76
2022-08-04T05:15:15.472Z,22.88
2022-08-04T05:17:50.448Z,22.91
2022-08-04T05:20:24.663Z,22.56
2022-08-04T05:22:58.268Z,22.23
2022-08-04T05:25:55.047Z,22.11
2022-08-04T05:28:34.315Z,22.52
2022-08-04T05:31:11.257Z,22.85
2022-08-04T05:33:54.818Z,22.96
2022-08-04T05:36:41.124Z,22.68
2022-08-04T05:39:25.371Z,22.46
2022-08-04T05:41:55.172Z,22.42
2022-08-04T05:44:25.356Z,22.82
2022-08-04T05:46:58.183Z,23.14
2022-08-04T05:49:29.735Z,22.97
2022-08-04T05:52:01.809Z,22.74
2022-08-04T05:54:33.735Z,22.57
2022-08-04T05:57:04.591Z,22.43
2022-08-04T05:59:35.207Z,22.50
2022-08-04T06:02:04.887Z,22.93
2022-08-04T06:04:38.916Z,23.20
2022-08-04T06:07:07.270Z,23.04
2022-08-04T06:09:35.308Z,22.89
2022-08-04T06:12:07.375Z,22.86
2022-08-04T06:14:46.554Z,22.87
2022-08-04T06:18:33.262Z,22.88
2022-08-04T06:20:20.150Z,22.91
2022-08-04T06:22:54.483Z,22.95
2022-08-04T06:25:28.526Z,23.01
2022-08-04T06:27:57.021Z,23.19
2022-08-04T06:30:27.352Z,23.36
2022-08-04T06:33:03.368Z,23.56
2022-08-04T06:35:33.899Z,23.77
2022-08-04T06:38:03.152Z,23.93
2022-08-04T06:40:34.102Z,24.06
2022-08-04T06:43:06.710Z,24.19
2022-08-04T06:45:37.408Z,24.34
2022-08-04T06:48:06.844Z,24.48
2022-08-04T06:51:30.949Z,24.66
2022-08-04T06:53:25.696Z,24.75
2022-08-04T06:55:54.605Z,24.80
2022-08-04T06:58:23.308Z,24.94
2022-08-04T07:00:51.833Z,25.12
2022-08-04T07:03:21.628Z,25.32
2022-08-04T07:05:50.708Z,25.49
2022-08-04T07:08:19.519Z,25.63
2022-08-04T07:10:47.863Z,25.70
2022-08-04T07:13:16.007Z,25.79
2022-08-04T07:15:45.846Z,25.90
2022-08-04T07:18:14.003Z,26.03
2022-08-04T07:20:46.287Z,26.20
2022-08-04T07:23:17.645Z,26.36
2022-08-04T07:25:59.422Z,26.48
2022-08-04T07:28:30.908Z,26.56
2022-08-04T07:30:59.033Z,26.66
2022-08-04T07:33:27.829Z,26.80
2022-08-04T07:36:05.661Z,26.98
2022-08-04T07:38:48.626Z,27.19
2022-08-04T07:41:40.689Z,27.40
2022-08-04T07:44:09.648Z,27.54
2022-08-04T07:46:37.626Z,27.64
2022-08-04T07:49:06.109Z,27.68
2022-08-04T07:51:35.554Z,27.74
2022-08-04T07:54:05.414Z,27.82
2022-08-04T07:56:36.574Z,27.96
2022-08-04T07:59:04.905Z,28.08
2022-08-04T08:01:35.347Z,28.20
2022-08-04T08:04:06.609Z,28.33
2022-08-04T08:06:42.698Z,28.45
2022-08-04T08:09:16.439Z,28.47
2022-08-04T08:12:37.270Z,28.53
2022-08-04T08:14:38.033Z,28.63
2022-08-04T08:17:05.971Z,28.70
2022-08-04T08:19:37.033Z,28.75
2022-08-04T08:22:05.404Z,28.83
2022-08-04T08:24:37.262Z,28.92
2022-08-04T08:27:06.899Z,29.05
2022-08-04T08:29:35.514Z,29.19
2022-08-04T08:32:08.490Z,29.24
2022-08-04T08:34:38.860Z,29.30
2022-08-04T08:37:16.355Z,29.35
2022-08-04T08:39:52.891Z,29.41
2022-08-04T08:42:29.760Z,29.44
2022-08-04T08:45:17.856Z,29.54
2022-08-04T08:48:13.170Z,29.69
2022-08-04T08:51:02.168Z,29.84
2022-08-04T08:53:29.823Z,30.05
2022-08-04T08:56:32.348Z,30.27
2022-08-04T08:59:27.385Z,30.25
2022-08-04T09:02:20.093Z,30.21
2022-08-04T09:04:53.861Z,30.31
2022-08-04T09:07:21.969Z,30.42
2022-08-04T09:10:13.679Z,30.75
2022-08-04T09:13:05.171Z,32.33
2022-08-04T09:15:45.643Z,34.60
2022-08-04T09:18:32.898Z,36.70
2022-08-04T09:21:06.959Z,38.87
2022-08-04T09:23:59.107Z,40.52
2022-08-04T09:26:32.574Z,42.20
2022-08-04T09:29:18.979Z,43.11
2022-08-04T09:32:06.951Z,44.70
2022-08-04T09:35:03.108Z,46.74
2022-08-04T09:37:58.314Z,47.92
2022-08-04T09:40:52.706Z,49.66
2022-08-04T09:44:48.792Z,51.27
2022-08-04T09:46:55.749Z,52.47
2022-08-04T09:49:47.849Z,53.53
2022-08-04T09:52:46.548Z,54.38
2022-08-04T09:55:53.470Z,55.63
2022-08-04T09:58:28.885Z,56.60
2022-08-04T10:01:03.259Z,56.77
2022-08-04T10:03:35.637Z,56.25
2022-08-04T10:06:40.676Z,56.37
2022-08-04T10:09:33.766Z,55.92
2022-08-04T10:12:01.335Z,56.56
2022-08-04T10:14:41.495Z,56.95
2022-08-04T10:17:24.431Z,56.76
2022-08-04T10:20:07.862Z,57.23
2022-08-04T10:23:09.216Z,57.24
2022-08-04T10:26:06.077Z,57.00
2022-08-04T10:28:31.624Z,56.58
2022-08-04T10:31:03.725Z,56.83
2022-08-04T10:33:34.549Z,56.75
2022-08-04T10:36:06.691Z,57.12
2022-08-04T10:38:45.240Z,57.49
2022-08-04T10:41:17.147Z,57.51
2022-08-04T10:44:24.632Z,57.50
2022-08-04T10:47:02.099Z,56.83
2022-08-04T10:49:38.412Z,56.05
2022-08-04T10:52:17.440Z,56.25
2022-08-04T10:55:03.820Z,57.14
2022-08-04T10:57:37.475Z,57.72
2022-08-04T11:00:12.282Z,58.09
2022-08-04T11:02:45.418Z,58.64
2022-08-04T11:05:24.764Z,57.55
2022-08-04T11:08:10.038Z,55.63
2022-08-04T11:10:46.150Z,55.07
2022-08-04T11:13:29.474Z,54.92
2022-08-04T11:16:03.126Z,53.96
2022-08-04T11:18:45.764Z,52.69
2022-08-04T11:21:23.394Z,51.00
2022-08-04T11:24:03.628Z,48.99
2022-08-04T11:26:49.036Z,47.78
2022-08-04T11:29:24.117Z,46.47
2022-08-04T11:31:52.640Z,44.88
2022-08-04T11:34:25.310Z,43.26
2022-08-04T11:37:18.540Z,42.20
2022-08-04T11:39:52.329Z,41.36
2022-08-04T11:42:23.784Z,40.73
2022-08-04T11:45:07.080Z,40.28
2022-08-04T11:48:07.526Z,39.43
2022-08-04T11:50:39.450Z,38.26
2022-08-04T11:53:08.482Z,37.45
2022-08-04T11:56:06.898Z,36.81
2022-08-04T11:58:25.327Z,36.22
2022-08-04T12:00:59.259Z,35.86
2022-08-04T12:03:45.154Z,35.59
2022-08-04T12:06:37.479Z,35.40
2022-08-04T12:09:36.933Z,35.11
2022-08-04T12:12:17.650Z,34.86
2022-08-04T12:15:00.098Z,34.41
2022-08-04T12:17:37.045Z,34.09
2022-08-04T12:20:34.332Z,33.82
2022-08-04T12:23:16.094Z,33.73
2022-08-04T12:25:48.631Z,33.61
2022-08-04T12:28:41.362Z,33.40
2022-08-04T12:31:25.437Z,33.25
2022-08-04T12:34:07.402Z,33.12
2022-08-04T12:36:56.269Z,32.88
2022-08-04T12:39:26.241Z,32.50
2022-08-04T12:42:11.573Z,32.17
2022-08-04T12:44:41.572Z,31.89
2022-08-04T12:47:26.916Z,31.62
2022-08-04T12:50:02.622Z,31.39
2022-08-04T12:53:01.074Z,31.31
2022-08-04T12:55:31.905Z,31.47
2022-08-04T12:58:00.213Z,31.48
2022-08-04T13:00:41.353Z,31.34
2022-08-04T13:03:12.680Z,31.16
2022-08-04T13:05:41.925Z,31.05
2022-08-04T13:08:11.938Z,30.95
2022-08-04T13:10:42.934Z,30.84
2022-08-04T13:13:19.632Z,30.81
2022-08-04T13:16:02.175Z,30.77
2022-08-04T13:18:34.660Z,30.53
2022-08-04T13:21:19.469Z,30.35
2022-08-04T13:24:20.522Z,30.18
2022-08-04T13:27:14.859Z,29.95
2022-08-04T13:30:00.083Z,29.85
2022-08-04T13:32:32.361Z,29.83
2022-08-04T13:35:01.841Z,29.79
2022-08-04T13:37:35.401Z,29.76
2022-08-04T13:40:05.613Z,29.74
2022-08-04T13:42:37.541Z,29.69
2022-08-04T13:45:07.456Z,29.63
2022-08-04T13:47:38.304Z,29.62
2022-08-04T13:50:27.303Z,29.63
2022-08-04T13:52:57.265Z,29.69
2022-08-04T13:55:33.635Z,29.69
2022-08-04T13:58:09.399Z,29.65
2022-08-04T14:00:44.742Z,29.64
2022-08-04T14:03:24.229Z,29.58
2022-08-04T14:06:11.818Z,29.54
2022-08-04T14:08:52.673Z,29.56
2022-08-04T14:12:06.216Z,29.58
2022-08-04T14:14:33.984Z,29.61
2022-08-04T14:17:19.781Z,29.68
2022-08-04T14:19:53.246Z,29.75
2022-08-04T14:22:30.140Z,29.79
2022-08-04T14:25:00.805Z,29.77
2022-08-04T14:27:29.136Z,29.78
2022-08-04T14:29:57.738Z,29.84
2022-08-04T14:32:26.493Z,30.10
2022-08-04T14:34:54.546Z,30.49
2022-08-04T14:37:23.383Z,30.74
2022-08-04T14:40:18.438Z,30.76
2022-08-04T14:42:55.429Z,30.64
2022-08-04T14:45:34.355Z,30.58
2022-08-04T14:48:13.715Z,30.56
2022-08-04T14:50:46.360Z,30.58
2022-08-04T14:53:19.889Z,30.68
2022-08-04T14:55:49.762Z,30.73
2022-08-04T14:58:35.109Z,30.74
2022-08-04T15:01:12.008Z,30.74
2022-08-04T15:03:50.630Z,30.68
2022-08-04T15:06:26.492Z,30.41
2022-08-04T15:08:58.390Z,30.21
2022-08-04T15:11:26.710Z,30.15
2022-08-04T15:13:56.575Z,30.15
2022-08-04T15:16:26.952Z,30.18
2022-08-04T15:18:56.705Z,30.16
2022-08-04T15:21:28.146Z,30.14
2022-08-04T15:23:57.408Z,30.14
2022-08-04T15:26:37.140Z,30.17
2022-08-04T15:29:24.209Z,30.23
2022-08-04T15:32:07.772Z,30.30
2022-08-04T15:34:51.081Z,30.30
2022-08-04T15:37:27.512Z,30.18
2022-08-04T15:40:09.853Z,30.01
2022-08-04T15:43:15.047Z,29.80
2022-08-04T15:46:32.885Z,29.56
2022-08-04T15:48:41.937Z,29.39
2022-08-04T15:51:15.070Z,29.27
2022-08-04T15:54:01.835Z,29.16
2022-08-04T15:56:31.038Z,29.06
2022-08-04T15:58:59.017Z,28.94
2022-08-04T16:01:27.991Z,28.85
2022-08-04T16:03:59.616Z,28.78
2022-08-04T16:06:30.550Z,28.74
2022-08-04T16:08:59.563Z,28.69
2022-08-04T16:11:32.582Z,28.65
2022-08-04T16:14:00.792Z,28.58
2022-08-04T16:16:33.451Z,28.50
2022-08-04T16:19:08.490Z,28.43
2022-08-04T16:21:48.793Z,28.38
2022-08-04T16:24:35.647Z,28.33
2022-08-04T16:27:05.165Z,28.25
2022-08-04T16:29:40.321Z,28.19
2022-08-04T16:32:19.595Z,28.12
2022-08-04T16:34:55.296Z,28.05
2022-08-04T16:37:32.289Z,27.98
2022-08-04T16:40:29.791Z,27.92
2022-08-04T16:43:06.349Z,27.86
2022-08-04T16:45:58.740Z,27.80
2022-08-04T16:48:31.628Z,27.74
2022-08-04T16:51:10.162Z,27.70
2022-08-04T16:53:57.899Z,27.65
2022-08-04T16:56:34.776Z,27.59
2022-08-04T16:59:11.341Z,27.54
2022-08-04T17:01:50.025Z,27.48
2022-08-04T17:04:18.048Z,27.41
2022-08-04T17:06:46.719Z,27.35
2022-08-04T17:09:19.527Z,27.30
2022-08-04T17:11:48.489Z,27.24
2022-08-04T17:14:25.511Z,27.17
2022-08-04T17:16:56.519Z,27.11
2022-08-04T17:19:26.472Z,27.05
2022-08-04T17:22:06.005Z,26.96
2022-08-04T17:24:36.419Z,26.84
2022-08-04T17:28:18.434Z,26.70
2022-08-04T17:29:52.743Z,26.57
2022-08-04T17:32:22.622Z,26.47
2022-08-04T17:34:53.660Z,26.36
2022-08-04T17:37:40.211Z,26.24
2022-08-04T17:40:18.451Z,26.10
2022-08-04T17:44:03.676Z,25.96
2022-08-04T17:46:33.995Z,25.78
2022-08-04T17:49:10.852Z,25.58
2022-08-04T17:52:05.898Z,25.42
2022-08-04T17:54:38.934Z,25.25
2022-08-04T17:57:13.465Z,25.10
2022-08-04T17:59:56.479Z,24.94
2022-08-04T18:02:32.156Z,24.77
2022-08-04T18:05:07.698Z,24.61
2022-08-04T18:08:38.460Z,24.45
2022-08-04T18:10:41.701Z,24.26
2022-08-04T18:13:22.222Z,24.07
2022-08-04T18:16:02.642Z,23.92
2022-08-04T18:18:30.902Z,23.79
2022-08-04T18:21:03.504Z,23.72
2022-08-04T18:23:33.400Z,23.74
2022-08-04T18:26:03.520Z,24.05
2022-08-04T18:28:33.653Z,24.33
2022-08-04T18:31:02.306Z,24.51
2022-08-04T18:33:40.868Z,24.37
2022-08-04T18:36:36.693Z,23.93
2022-08-04T18:38:59.434Z,23.52
2022-08-04T18:42:00.994Z,23.20
2022-08-04T18:44:32.198Z,22.97
2022-08-04T18:47:22.469Z,22.85
2022-08-04T18:51:00.701Z,22.75
2022-08-04T18:52:42.044Z,22.54
2022-08-04T18:55:55.457Z,22.44
2022-08-04T18:58:07.378Z,22.78
2022-08-04T19:00:45.776Z,23.06
2022-08-04T19:03:16.614Z,23.23
2022-08-04T19:05:51.714Z,23.33
2022-08-04T19:08:34.967Z,23.11
2022-08-04T19:11:38.481Z,22.63
2022-08-04T19:13:58.012Z,22.39
2022-08-04T19:16:32.502Z,22.63
2022-08-04T19:19:05.534Z,22.86
2022-08-04T19:22:00.349Z,23.00
2022-08-04T19:24:32.129Z,23.09
2022-08-04T19:27:07.240Z,23.15
2022-08-04T19:29:40.632Z,23.18
2022-08-04T19:32:14.154Z,23.19
2022-08-04T19:34:47.294Z,23.19
2022-08-04T19:37:57.816Z,23.18
2022-08-04T19:40:09.605Z,23.14
2022-08-04T19:42:38.562Z,23.12
2022-08-04T19:45:10.097Z,23.07
2022-08-04T19:48:18.192Z,23.00
2022-08-04T19:50:33.238Z,22.92
2022-08-04T19:53:01.577Z,22.87
2022-08-04T19:55:37.503Z,22.82
2022-08-04T19:58:08.468Z,22.75
2022-08-04T20:00:38.036Z,22.68
2022-08-04T20:03:09.846Z,22.61
2022-08-04T20:05:54.821Z,22.54
2022-08-04T20:08:26.681Z,22.46
2022-08-04T20:10:57.967Z,22.14
2022-08-04T20:13:37.054Z,21.69
2022-08-04T20:19:00.960Z,21.82
2022-08-04T20:21:36.498Z,21.86
2022-08-04T20:24:37.725Z,21.87
2022-08-04T20:27:15.283Z,21.83
2022-08-04T20:29:46.246Z,21.80
2022-08-04T20:32:25.389Z,21.76
2022-08-04T20:34:54.859Z,21.73
2022-08-04T20:37:24.744Z,21.70
2022-08-04T20:39:55.245Z,21.66
2022-08-04T20:42:33.818Z,21.63
2022-08-04T20:45:02.521Z,21.58
2022-08-04T20:47:35.049Z,21.54
2022-08-04T20:50:05.807Z,21.54
2022-08-04T20:52:37.981Z,21.50
2022-08-04T20:55:07.423Z,21.45
2022-08-04T20:57:48.411Z,21.38
2022-08-04T21:00:29.629Z,21.32
2022-08-04T21:02:59.328Z,21.28
2022-08-04T21:05:27.412Z,21.26
2022-08-04T21:07:57.142Z,21.23
2022-08-04T21:10:25.717Z,21.23
2022-08-04T21:12:54.506Z,21.23
2022-08-04T21:15:26.236Z,21.22
2022-08-04T21:18:14.203Z,21.20
2022-08-04T21:20:43.357Z,21.18
2022-08-04T21:23:11.208Z,21.17
2022-08-04T21:25:42.739Z,21.13
2022-08-04T21:28:12.151Z,21.12
2022-08-04T21:30:54.311Z,21.11
2022-08-04T21:33:49.618Z,21.08
2022-08-04T21:36:14.646Z,21.04
2022-08-04T21:38:51.255Z,20.99
2022-08-04T21:41:25.110Z,20.94
2022-08-04T21:43:56.122Z,20.90
2022-08-04T21:46:25.462Z,20.86
2022-08-04T21:48:58.440Z,20.83
2022-08-04T21:51:59.808Z,20.81
2022-08-04T21:54:17.578Z,20.78
2022-08-04T21:56:51.627Z,20.78
2022-08-04T21:59:28.513Z,20.77
2022-08-04T22:02:01.175Z,20.74
2022-08-04T22:04:29.645Z,20.72
2022-08-04T22:07:02.669Z,20.66
2022-08-04T22:09:38.768Z,20.63
2022-08-04T22:12:11.974Z,20.59
2022-08-04T22:14:40.420Z,20.56
2022-08-04T22:17:13.894Z,20.56
2022-08-04T22:19:55.499Z,20.56
2022-08-04T22:22:28.974Z,20.55
2022-08-04T22:25:12.479Z,20.53
2022-08-04T22:28:02.926Z,20.49
2022-08-04T22:30:36.891Z,20.45
2022-08-04T22:33:08.314Z,20.41
2022-08-04T22:35:48.988Z,20.39
2022-08-04T22:38:35.831Z,20.36
2022-08-04T22:41:10.882Z,20.31
2022-08-04T22:43:40.393Z,20.29
2022-08-04T22:46:11.923Z,20.25
2022-08-04T22:48:43.378Z,20.21
2022-08-04T22:51:12.754Z,20.23
2022-08-04T22:53:48.648Z,20.22
2022-08-04T22:56:37.374Z,20.24
2022-08-04T22:59:11.190Z,20.24
2022-08-04T23:02:00.445Z,20.27
2022-08-04T23:04:30.843Z,20.30
2022-08-04T23:06:58.815Z,20.32
2022-08-04T23:09:49.997Z,20.33
2022-08-04T23:12:30.446Z,20.32
2022-08-04T23:14:59.037Z,20.30
2022-08-04T23:17:28.433Z,20.30
2022-08-04T23:19:59.278Z,20.32
2022-08-04T23:22:42.101Z,20.33
2022-08-04T23:25:15.836Z,20.31
2022-08-04T23:27:50.519Z,20.28
2022-08-04T23:30:21.756Z,20.25
2022-08-04T23:32:53.314Z,20.24
2022-08-04T23:35:22.588Z,20.24
2022-08-04T23:37:56.822Z,20.24
2022-08-04T23:40:33.181Z,20.22
2022-08-04T23:43:17.356Z,20.23
2022-08-04T23:46:03.855Z,20.23
2022-08-04T23:48:36.864Z,20.22
2022-08-04T23:51:14.229Z,20.23
2022-08-04T23:54:02.267Z,20.22
2022-08-04T23:56:33.980Z,20.26
2022-08-04T23:59:03.969Z,20.29
